createdAt,value
2023-03-08T00:00:46.016Z,20.75
2023-03-08T00:03:49.026Z,20.74
2023-03-08T00:06:52.012Z,20.74
2023-03-08T00:09:54.927Z,20.73
2023-03-08T00:12:59.235Z,20.73
2023-03-08T00:16:02.900Z,20.71
2023-03-08T00:19:05.840Z,20.71
2023-03-08T00:22:08.856Z,20.69
2023-03-08T00:25:12.254Z,20.70
2023-03-08T00:28:16.533Z,20.69
2023-03-08T00:31:19.748Z,20.68
2023-03-08T00:34:23.112Z,20.68
2023-03-08T00:37:26.052Z,20.67
2023-03-08T00:40:29.020Z,20.67
2023-03-08T00:43:34.880Z,20.66
2023-03-08T00:46:39.527Z,20.66
2023-03-08T00:49:42.636Z,20.64
2023-03-08T00:52:45.623Z,20.65
2023-03-08T00:55:54.252Z,20.65
2023-03-08T00:58:58.571Z,20.63
2023-03-08T01:02:01.883Z,20.64
2023-03-08T01:05:05.052Z,20.64
2023-03-08T01:08:07.981Z,20.63
2023-03-08T01:11:17.698Z,20.63
2023-03-08T01:14:23.568Z,20.63
2023-03-08T01:17:26.696Z,20.64
2023-03-08T01:20:29.628Z,20.65
2023-03-08T01:23:33.360Z,20.65
2023-03-08T01:26:36.618Z,20.65
2023-03-08T01:29:41.146Z,20.65
2023-03-08T01:32:44.187Z,20.65
2023-03-08T01:35:47.099Z,20.65
2023-03-08T01:38:51.981Z,20.64
2023-03-08T01:41:54.964Z,20.63
2023-03-08T01:45:01.013Z,20.64
2023-03-08T01:48:06.259Z,20.63
2023-03-08T01:51:37.244Z,20.63
2023-03-08T01:54:46.936Z,20.62
2023-03-08T01:57:53.453Z,20.62
2023-03-08T02:00:58.219Z,20.62
2023-03-08T02:04:01.550Z,20.63
2023-03-08T02:07:05.003Z,20.63
2023-03-08T02:10:09.307Z,20.63
2023-03-08T02:13:13.696Z,20.63
2023-03-08T02:16:22.200Z,20.63
2023-03-08T02:19:33.404Z,20.63
2023-03-08T02:22:40.180Z,20.62
2023-03-08T02:25:50.745Z,20.61
2023-03-08T02:28:53.843Z,20.60
2023-03-08T02:31:57.513Z,20.59
2023-03-08T02:35:00.470Z,20.59
2023-03-08T02:38:04.767Z,20.59
2023-03-08T02:41:07.975Z,20.59
2023-03-08T02:44:12.466Z,20.59
2023-03-08T02:47:15.481Z,20.59
2023-03-08T02:50:18.632Z,20.60
2023-03-08T02:53:23.054Z,20.59
2023-03-08T02:56:26.063Z,20.58
2023-03-08T02:59:30.824Z,20.57
2023-03-08T03:02:34.939Z,20.59
2023-03-08T03:05:43.085Z,20.58
2023-03-08T03:08:50.805Z,20.57
2023-03-08T03:11:54.902Z,20.55
2023-03-08T03:14:58.273Z,20.56
2023-03-08T03:18:01.905Z,20.56
2023-03-08T03:21:06.055Z,20.55
2023-03-08T03:24:10.532Z,20.55
2023-03-08T03:27:22.244Z,20.55
2023-03-08T03:30:25.256Z,20.55
2023-03-08T03:33:29.591Z,20.57
2023-03-08T03:36:34.358Z,20.56
2023-03-08T03:39:39.693Z,20.56
2023-03-08T03:42:45.621Z,20.55
2023-03-08T03:45:56.683Z,20.56
2023-03-08T03:49:00.289Z,20.54
2023-03-08T03:52:09.256Z,20.54
2023-03-08T03:55:20.014Z,20.54
2023-03-08T03:58:24.229Z,20.55
2023-03-08T04:01:29.440Z,20.54
2023-03-08T04:04:39.454Z,20.54
2023-03-08T04:07:42.965Z,20.55
2023-03-08T04:10:47.413Z,20.56
2023-03-08T04:13:50.885Z,20.56
2023-03-08T04:16:57.285Z,20.57
2023-03-08T04:20:08.016Z,20.57
2023-03-08T04:23:16.491Z,20.57
2023-03-08T04:26:23.706Z,20.58
2023-03-08T04:29:26.832Z,20.59
2023-03-08T04:32:31.784Z,20.59
2023-03-08T04:35:35.481Z,20.59
2023-03-08T04:38:40.117Z,20.59
2023-03-08T04:41:44.587Z,20.58
2023-03-08T04:45:08.989Z,20.57
2023-03-08T04:48:12.116Z,20.57
2023-03-08T04:51:16.859Z,20.58
2023-03-08T04:54:21.358Z,20.58
2023-03-08T04:57:31.765Z,20.58
2023-03-08T05:00:36.361Z,20.58
2023-03-08T05:03:39.927Z,20.57
2023-03-08T05:06:43.691Z,20.56
2023-03-08T05:09:51.772Z,20.56
2023-03-08T05:12:56.200Z,20.55
2023-03-08T05:15:59.722Z,20.53
2023-03-08T05:19:04.463Z,20.54
2023-03-08T05:22:12.873Z,20.52
2023-03-08T05:25:21.879Z,20.51
2023-03-08T05:28:28.786Z,20.49
2023-03-08T05:31:32.353Z,20.50
2023-03-08T05:34:39.264Z,20.50
2023-03-08T05:37:45.176Z,20.50
2023-03-08T05:40:48.520Z,20.50
2023-03-08T05:43:53.430Z,20.51
2023-03-08T05:46:57.395Z,20.49
2023-03-08T05:50:00.399Z,20.49
2023-03-08T05:53:06.261Z,20.49
2023-03-08T05:56:10.712Z,20.49
2023-03-08T05:59:18.324Z,20.48
2023-03-08T06:02:23.497Z,20.50
2023-03-08T06:05:30.193Z,20.50
2023-03-08T06:08:34.206Z,20.50
2023-03-08T06:11:37.368Z,20.52
2023-03-08T06:14:42.867Z,20.52
2023-03-08T06:17:47.079Z,20.53
2023-03-08T06:21:01.971Z,20.53
2023-03-08T06:24:06.864Z,20.54
2023-03-08T06:27:09.962Z,20.55
2023-03-08T06:30:17.338Z,20.56
2023-03-08T06:33:21.629Z,20.57
2023-03-08T06:36:24.807Z,20.58
2023-03-08T06:39:30.911Z,20.57
2023-03-08T06:42:41.414Z,20.57
2023-03-08T06:45:49.958Z,20.57
2023-03-08T06:48:54.464Z,20.58
2023-03-08T06:51:57.519Z,20.58
2023-03-08T06:55:00.550Z,20.57
2023-03-08T06:58:03.782Z,20.57
2023-03-08T07:01:09.703Z,20.57
2023-03-08T07:04:12.755Z,20.57
2023-03-08T07:07:15.739Z,20.58
2023-03-08T07:10:20.652Z,20.59
2023-03-08T07:13:24.217Z,20.59
2023-03-08T07:16:29.060Z,20.59
2023-03-08T07:19:32.803Z,20.58
2023-03-08T07:22:35.769Z,20.57
2023-03-08T07:25:40.157Z,20.57
2023-03-08T07:28:43.204Z,20.56
2023-03-08T07:31:47.517Z,20.56
2023-03-08T07:34:50.503Z,20.56
2023-03-08T07:37:53.507Z,20.55
2023-03-08T07:40:57.524Z,20.55
2023-03-08T07:44:00.432Z,20.55
2023-03-08T07:47:05.998Z,20.56
2023-03-08T07:50:10.373Z,20.57
2023-03-08T07:53:13.311Z,20.57
2023-03-08T07:56:16.265Z,20.57
2023-03-08T07:59:19.280Z,20.56
2023-03-08T08:02:24.042Z,20.57
2023-03-08T08:05:27.120Z,20.57
2023-03-08T08:08:30.066Z,20.56
2023-03-08T08:11:34.296Z,20.56
2023-03-08T08:14:37.410Z,20.56
2023-03-08T08:17:41.750Z,20.56
2023-03-08T08:20:44.678Z,20.56
2023-03-08T08:23:48.310Z,20.57
2023-03-08T08:26:51.212Z,20.56
2023-03-08T08:29:54.221Z,20.57
2023-03-08T08:33:01.264Z,20.58
2023-03-08T08:36:06.668Z,20.58
2023-03-08T08:39:09.839Z,20.59
2023-03-08T08:42:12.867Z,20.60
2023-03-08T08:45:16.166Z,20.61
2023-03-08T08:48:20.581Z,20.62
2023-03-08T08:51:23.763Z,20.63
2023-03-08T08:54:26.924Z,20.64
2023-03-08T08:57:29.956Z,20.65
2023-03-08T09:00:34.558Z,20.65
2023-03-08T09:03:38.857Z,20.65
2023-03-08T09:06:41.872Z,20.66
2023-03-08T09:09:46.434Z,20.65
2023-03-08T09:12:49.486Z,20.67
2023-03-08T09:15:52.433Z,20.68
2023-03-08T09:18:58.002Z,20.68
2023-03-08T09:22:01.077Z,20.69
2023-03-08T09:25:04.746Z,20.69
2023-03-08T09:28:07.720Z,20.68
2023-03-08T09:31:14.986Z,20.69
2023-03-08T09:34:19.538Z,20.69
2023-03-08T09:37:22.569Z,20.69
2023-03-08T09:40:28.072Z,20.70
2023-03-08T09:43:45.399Z,20.69
2023-03-08T09:46:53.451Z,20.70
2023-03-08T09:50:15.928Z,20.71
2023-03-08T09:53:25.029Z,20.71
2023-03-08T09:56:34.180Z,20.72
2023-03-08T09:59:42.744Z,20.73
2023-03-08T10:02:55.321Z,20.74
2023-03-08T10:06:05.430Z,20.76
2023-03-08T10:09:22.341Z,20.76
2023-03-08T10:12:35.312Z,20.75
2023-03-08T10:15:43.113Z,20.76
2023-03-08T10:18:51.624Z,20.76
2023-03-08T10:21:59.323Z,20.76
2023-03-08T10:25:05.986Z,20.77
2023-03-08T10:28:14.635Z,20.77
2023-03-08T10:31:24.123Z,20.76
2023-03-08T10:34:35.238Z,20.72
2023-03-08T10:37:39.789Z,20.69
2023-03-08T10:40:42.752Z,20.67
2023-03-08T10:43:48.182Z,20.67
2023-03-08T10:46:51.649Z,20.71
2023-03-08T10:50:16.478Z,20.76
2023-03-08T10:53:23.180Z,20.79
2023-03-08T10:56:30.195Z,20.84
2023-03-08T10:59:35.665Z,20.88
2023-03-08T11:02:39.192Z,20.91
2023-03-08T11:05:52.608Z,20.95
2023-03-08T11:08:59.307Z,20.97
2023-03-08T11:12:02.197Z,20.98
2023-03-08T11:15:14.670Z,21.00
2023-03-08T11:18:30.467Z,21.00
2023-03-08T11:21:42.495Z,21.00
2023-03-08T11:24:57.195Z,21.02
2023-03-08T11:28:30.476Z,21.00
2023-03-08T11:31:41.418Z,20.99
2023-03-08T11:34:58.356Z,20.98
2023-03-08T11:38:07.892Z,20.97
2023-03-08T11:41:25.438Z,20.96
2023-03-08T11:44:43.225Z,20.95
2023-03-08T11:48:08.164Z,20.96
2023-03-08T11:51:19.853Z,20.95
2023-03-08T11:54:40.335Z,20.95
2023-03-08T11:57:51.592Z,20.95
2023-03-08T12:01:00.928Z,20.94
2023-03-08T12:04:10.683Z,20.92
2023-03-08T12:07:22.914Z,20.94
2023-03-08T12:10:29.900Z,20.95
2023-03-08T12:13:37.598Z,20.95
2023-03-08T12:16:47.840Z,20.94
2023-03-08T12:19:52.695Z,20.93
2023-03-08T12:23:01.833Z,20.91
2023-03-08T12:26:11.400Z,20.90
2023-03-08T12:29:23.589Z,20.90
2023-03-08T12:32:28.421Z,20.89
2023-03-08T12:35:33.582Z,20.89
2023-03-08T12:38:38.885Z,20.87
2023-03-08T12:41:41.931Z,20.88
2023-03-08T12:44:46.256Z,20.87
2023-03-08T12:47:57.383Z,20.88
2023-03-08T12:51:09.662Z,20.88
2023-03-08T12:54:23.239Z,20.88
2023-03-08T12:57:30.413Z,20.86
2023-03-08T13:00:37.706Z,20.87
2023-03-08T13:03:42.319Z,20.87
2023-03-08T13:07:21.496Z,20.85
2023-03-08T13:10:30.781Z,20.83
2023-03-08T13:13:51.707Z,20.83
2023-03-08T13:16:56.257Z,20.80
2023-03-08T13:20:02.249Z,20.79
2023-03-08T13:23:12.391Z,20.78
2023-03-08T13:26:50.258Z,20.77
2023-03-08T13:29:55.014Z,20.77
2023-03-08T13:33:00.337Z,20.78
2023-03-08T13:36:04.941Z,20.77
2023-03-08T13:39:17.989Z,20.78
2023-03-08T13:42:25.136Z,20.77
2023-03-08T13:45:29.511Z,20.76
2023-03-08T13:48:39.988Z,20.75
2023-03-08T13:51:45.922Z,20.74
2023-03-08T13:54:54.805Z,20.74
2023-03-08T13:58:00.205Z,20.73
2023-03-08T14:01:13.579Z,20.72
2023-03-08T14:04:22.480Z,20.71
2023-03-08T14:07:32.106Z,20.71
2023-03-08T14:10:39.296Z,20.71
2023-03-08T14:13:48.453Z,20.71
2023-03-08T14:16:55.557Z,20.71
2023-03-08T14:20:05.494Z,20.73
2023-03-08T14:23:25.414Z,20.72
2023-03-08T14:26:35.200Z,20.72
2023-03-08T14:29:39.218Z,20.71
2023-03-08T14:32:56.094Z,20.71
2023-03-08T14:36:01.857Z,20.71
2023-03-08T14:39:05.951Z,20.70
2023-03-08T14:42:22.265Z,20.70
2023-03-08T14:45:30.214Z,20.69
2023-03-08T14:48:36.233Z,20.69
2023-03-08T14:51:43.159Z,20.71
2023-03-08T14:54:46.284Z,20.69
2023-03-08T14:57:50.446Z,20.70
2023-03-08T15:00:56.122Z,20.72
2023-03-08T15:03:59.853Z,20.72
2023-03-08T15:07:04.932Z,20.73
2023-03-08T15:10:09.552Z,20.72
2023-03-08T15:13:15.010Z,20.72
2023-03-08T15:16:18.061Z,20.73
2023-03-08T15:19:21.043Z,20.74
2023-03-08T15:22:25.354Z,20.74
2023-03-08T15:25:31.082Z,20.74
2023-03-08T15:28:34.213Z,20.74
2023-03-08T15:31:37.171Z,20.73
2023-03-08T15:34:40.903Z,20.73
2023-03-08T15:37:45.759Z,20.74
2023-03-08T15:40:48.823Z,20.74
2023-03-08T15:43:54.427Z,20.75
2023-03-08T15:46:57.527Z,20.76
2023-03-08T15:50:01.636Z,20.76
2023-03-08T15:53:05.997Z,20.77
2023-03-08T15:56:09.007Z,20.75
2023-03-08T15:59:12.249Z,20.76
2023-03-08T16:02:16.704Z,20.75
2023-03-08T16:05:22.740Z,20.71
2023-03-08T16:08:28.983Z,20.66
2023-03-08T16:11:33.116Z,20.59
2023-03-08T16:14:36.599Z,20.56
2023-03-08T16:17:39.687Z,20.56
2023-03-08T16:20:43.249Z,20.60
2023-03-08T16:23:47.726Z,20.69
2023-03-08T16:26:50.665Z,20.76
2023-03-08T16:29:54.359Z,20.83
2023-03-08T16:32:57.403Z,20.89
2023-03-08T16:36:00.496Z,20.96
2023-03-08T16:39:05.614Z,21.01
2023-03-08T16:42:12.785Z,21.06
2023-03-08T16:45:16.920Z,21.10
2023-03-08T16:48:20.088Z,21.14
2023-03-08T16:51:26.205Z,21.17
2023-03-08T16:54:31.009Z,21.19
2023-03-08T16:57:34.035Z,21.17
2023-03-08T17:00:37.049Z,21.14
2023-03-08T17:03:39.996Z,21.10
2023-03-08T17:06:45.038Z,21.04
2023-03-08T17:09:50.646Z,21.00
2023-03-08T17:12:53.573Z,20.96
2023-03-08T17:15:56.689Z,20.93
2023-03-08T17:19:00.914Z,20.90
2023-03-08T17:22:04.079Z,20.88
2023-03-08T17:25:10.136Z,20.88
2023-03-08T17:28:15.830Z,20.87
2023-03-08T17:31:21.437Z,20.86
2023-03-08T17:34:24.411Z,20.86
2023-03-08T17:37:27.450Z,20.86
2023-03-08T17:40:31.807Z,20.86
2023-03-08T17:43:35.182Z,20.86
2023-03-08T17:46:38.835Z,20.84
2023-03-08T17:49:42.100Z,20.84
2023-03-08T17:52:44.973Z,20.84
2023-03-08T17:55:49.352Z,20.84
2023-03-08T17:58:52.687Z,20.83
2023-03-08T18:01:55.684Z,20.82
2023-03-08T18:04:58.700Z,20.82
2023-03-08T18:08:01.648Z,20.81
2023-03-08T18:11:06.381Z,20.80
2023-03-08T18:14:11.368Z,20.79
2023-03-08T18:17:14.356Z,20.77
2023-03-08T18:20:19.017Z,20.77
2023-03-08T18:23:22.239Z,20.76
2023-03-08T18:26:26.663Z,20.76
2023-03-08T18:29:29.617Z,20.74
2023-03-08T18:32:32.772Z,20.75
2023-03-08T18:35:35.805Z,20.75
2023-03-08T18:38:39.051Z,20.75
2023-03-08T18:41:43.460Z,20.75
2023-03-08T18:44:46.427Z,20.74
2023-03-08T18:47:50.726Z,20.73
2023-03-08T18:50:54.509Z,20.73
2023-03-08T18:53:58.833Z,20.72
2023-03-08T18:57:03.536Z,20.71
2023-03-08T19:00:10.582Z,20.71
2023-03-08T19:03:13.559Z,20.71
2023-03-08T19:06:16.859Z,20.71
2023-03-08T19:09:21.759Z,20.71
2023-03-08T19:12:27.236Z,20.70
2023-03-08T19:15:30.614Z,20.71
2023-03-08T19:18:33.477Z,20.71
2023-03-08T19:21:38.980Z,20.71
2023-03-08T19:24:42.021Z,20.72
2023-03-08T19:27:46.391Z,20.71
2023-03-08T19:30:49.453Z,20.71
2023-03-08T19:33:52.512Z,20.70
2023-03-08T19:36:55.904Z,20.69
2023-03-08T19:40:00.949Z,20.70
2023-03-08T19:43:06.183Z,20.69
2023-03-08T19:46:10.057Z,20.68
2023-03-08T19:49:14.891Z,20.68
2023-03-08T19:52:17.943Z,20.67
2023-03-08T19:55:20.905Z,20.68
2023-03-08T19:58:25.296Z,20.67
2023-03-08T20:01:29.587Z,20.67
2023-03-08T20:04:32.793Z,20.68
2023-03-08T20:07:35.834Z,20.69
2023-03-08T20:10:39.207Z,20.69
2023-03-08T20:13:43.609Z,20.69
2023-03-08T20:16:49.952Z,20.67
2023-03-08T20:19:53.208Z,20.67
2023-03-08T20:22:56.441Z,20.68
2023-03-08T20:25:59.714Z,20.67
2023-03-08T20:29:05.206Z,20.67
2023-03-08T20:32:08.318Z,20.66
2023-03-08T20:35:13.751Z,20.66
2023-03-08T20:38:16.792Z,20.66
2023-03-08T20:41:21.889Z,20.68
2023-03-08T20:44:26.375Z,20.68
2023-03-08T20:47:29.394Z,20.69
2023-03-08T20:50:32.880Z,20.71
2023-03-08T20:53:36.612Z,20.70
2023-03-08T20:56:39.808Z,20.71
2023-03-08T20:59:44.212Z,20.70
2023-03-08T21:02:47.331Z,20.69
2023-03-08T21:05:50.344Z,20.69
2023-03-08T21:08:53.679Z,20.69
2023-03-08T21:11:56.740Z,20.69
2023-03-08T21:15:02.440Z,20.69
2023-03-08T21:18:06.659Z,20.68
2023-03-08T21:21:09.615Z,20.68
2023-03-08T21:24:14.220Z,20.68
2023-03-08T21:27:17.381Z,20.69
2023-03-08T21:30:22.011Z,20.69
2023-03-08T21:33:25.018Z,20.70
2023-03-08T21:36:28.056Z,20.69
2023-03-08T21:39:32.127Z,20.68
2023-03-08T21:42:35.100Z,20.66
2023-03-08T21:45:41.874Z,20.64
2023-03-08T21:48:45.034Z,20.64
2023-03-08T21:51:48.573Z,20.63
2023-03-08T21:54:51.745Z,20.62
2023-03-08T21:57:54.762Z,20.62
2023-03-08T22:00:59.091Z,20.64
2023-03-08T22:04:03.811Z,20.63
2023-03-08T22:07:06.784Z,20.63
2023-03-08T22:10:12.336Z,20.64
2023-03-08T22:13:15.616Z,20.65
2023-03-08T22:16:21.024Z,20.65
2023-03-08T22:19:24.044Z,20.66
2023-03-08T22:22:27.055Z,20.67
2023-03-08T22:25:29.989Z,20.67
2023-03-08T22:28:32.949Z,20.68
2023-03-08T22:31:37.263Z,20.69
2023-03-08T22:34:40.212Z,20.69
2023-03-08T22:37:43.891Z,20.69
2023-03-08T22:40:46.869Z,20.68
2023-03-08T22:43:50.668Z,20.70
2023-03-08T22:46:55.004Z,20.69
2023-03-08T22:49:58.112Z,20.70
2023-03-08T22:53:01.530Z,20.70
2023-03-08T22:56:04.454Z,20.70
2023-03-08T22:59:07.422Z,20.71
2023-03-08T23:02:12.171Z,20.69
2023-03-08T23:05:16.966Z,20.69
2023-03-08T23:08:19.899Z,20.69
2023-03-08T23:11:22.843Z,20.67
2023-03-08T23:14:25.756Z,20.66
2023-03-08T23:17:30.202Z,20.67
2023-03-08T23:20:33.387Z,20.66
2023-03-08T23:23:37.079Z,20.65
2023-03-08T23:26:40.479Z,20.66
2023-03-08T23:29:43.580Z,20.66
2023-03-08T23:32:47.958Z,20.68
2023-03-08T23:35:51.053Z,20.70
2023-03-08T23:38:54.270Z,20.71
2023-03-08T23:41:57.423Z,20.72
2023-03-08T23:45:00.474Z,20.72
2023-03-08T23:48:05.084Z,20.72
2023-03-08T23:51:10.461Z,20.72
2023-03-08T23:54:13.956Z,20.72
2023-03-08T23:57:17.072Z,20.72
